Time;durP1;ratioP1;P1;durP2;ratioP2;P2;SDS_P1;SDS_P2;PMS_P1;PMS_P2;Temp;Humidity;BMP_temperature;BMP_pressure;BME280_temperature;BME280_humidity;BME280_pressure;Samples;Min_cycle;Max_cycle;Signal;HPM_P1;HPM_P2
2021/01/17 00:00:55;;;;;;;48.08;19.27;;;;;;;-17.50;62.15;99404.95;1722919;82;21804;-58
2021/01/17 00:03:23;;;;;;;54.42;19.67;;;;;;;-17.41;62.09;99405.15;1744937;82;21643;-57
2021/01/17 00:05:52;;;;;;;54.60;19.85;;;;;;;-17.37;62.04;99407.08;1740445;82;21153;-59
2021/01/17 00:08:20;;;;;;;53.35;20.35;;;;;;;-17.32;62.00;99403.70;1728621;80;21206;-59
2021/01/17 00:10:48;;;;;;;41.77;15.63;;;;;;;-17.27;61.71;99402.44;1737000;82;21173;-59
2021/01/17 00:13:16;;;;;;;47.58;18.32;;;;;;;-17.45;61.77;99401.09;1748872;80;21348;-58
2021/01/17 00:15:44;;;;;;;43.78;17.05;;;;;;;-17.72;62.12;99406.06;1734380;82;21706;-59
2021/01/17 00:18:13;;;;;;;45.63;18.45;;;;;;;-17.94;62.25;99407.95;1737237;80;21202;-59
2021/01/17 00:20:43;;;;;;;52.85;18.45;;;;;;;-18.11;62.27;99404.33;1719631;82;21172;-59
2021/01/17 00:23:11;;;;;;;37.75;12.05;;;;;;;-18.31;62.51;99404.31;1707364;82;21806;-59
2021/01/17 00:25:40;;;;;;;50.45;18.50;;;;;;;-18.49;62.99;99401.13;1747860;82;21168;-59
2021/01/17 00:28:08;;;;;;;30.23;11.18;;;;;;;-18.62;63.53;99400.75;1725398;82;21761;-59
2021/01/17 00:30:35;;;;;;;57.27;19.05;;;;;;;-18.71;64.05;99401.35;1730916;82;21299;-59
2021/01/17 00:33:26;;;;;;;56.58;19.55;;;;;;;-18.80;64.50;99399.70;1721280;82;21167;-59
2021/01/17 00:35:56;;;;;;;50.38;18.17;;;;;;;-18.85;64.55;99400.47;1664247;85;21143;-57
2021/01/17 00:38:27;;;;;;;75.83;28.17;;;;;;;-18.93;64.53;99405.30;1626954;87;21195;-57
2021/01/17 00:40:55;;;;;;;82.62;30.15;;;;;;;-18.96;64.67;99399.46;1640978;87;21184;-59
2021/01/17 00:43:23;;;;;;;142.80;44.75;;;;;;;-18.93;64.71;99398.80;1652217;87;21188;-57
2021/01/17 00:45:51;;;;;;;232.40;70.72;;;;;;;-18.86;64.92;99400.09;1651645;87;21326;-58
2021/01/17 00:48:19;;;;;;;108.00;33.58;;;;;;;-18.65;65.68;99402.25;1651173;86;21820;-58
2021/01/17 00:50:47;;;;;;;123.35;40.58;;;;;;;-18.54;65.05;99399.81;1651371;87;21319;-57
2021/01/17 00:53:15;;;;;;;138.37;39.98;;;;;;;-18.53;64.76;99401.02;1651471;86;21353;-58
2021/01/17 00:55:44;;;;;;;130.43;39.30;;;;;;;-18.43;64.74;99401.22;1625313;87;21759;-58
2021/01/17 00:58:21;;;;;;;148.00;44.53;;;;;;;-18.28;64.56;99402.84;1762249;79;21731;-57
2021/01/17 01:00:49;;;;;;;132.87;41.77;;;;;;;-18.20;64.46;99412.25;1745611;82;21169;-58
2021/01/17 01:03:20;;;;;;;119.13;37.67;;;;;;;-18.10;64.07;99412.50;1680600;85;21164;-58
2021/01/17 01:05:47;;;;;;;114.40;36.83;;;;;;;-18.05;64.00;99408.66;1678383;84;21314;-57
2021/01/17 01:08:16;;;;;;;105.15;32.15;;;;;;;-18.04;63.69;99405.13;1678998;84;21295;-57
2021/01/17 01:10:44;;;;;;;114.65;36.50;;;;;;;-18.12;63.50;99406.55;1679592;84;21728;-58
2021/01/17 01:13:12;;;;;;;118.85;38.35;;;;;;;-18.24;63.40;99413.87;1681865;84;21157;-57
2021/01/17 01:15:40;;;;;;;117.15;37.48;;;;;;;-18.34;63.46;99404.05;1695201;84;21715;-58
2021/01/17 01:18:09;;;;;;;117.82;35.10;;;;;;;-18.36;63.68;99412.42;1648064;85;21785;-57
2021/01/17 01:20:37;;;;;;;124.70;38.30;;;;;;;-18.20;64.11;99412.71;1684449;84;21157;-58
2021/01/17 01:23:05;;;;;;;114.30;37.58;;;;;;;-17.99;63.87;99419.13;1691262;84;21181;-58
2021/01/17 01:25:33;;;;;;;109.57;36.17;;;;;;;-17.84;63.58;99414.20;1650591;87;21734;-57
2021/01/17 01:28:01;;;;;;;103.45;34.60;;;;;;;-17.71;63.20;99406.44;1680772;83;21336;-58
2021/01/17 01:30:28;;;;;;;98.15;32.65;;;;;;;-17.69;62.84;99405.38;1717086;83;21153;-58
2021/01/17 01:32:57;;;;;;;103.97;34.08;;;;;;;-17.70;62.43;99404.17;1674906;84;21972;-58
2021/01/17 01:35:27;;;;;;;106.32;35.00;;;;;;;-17.73;62.16;99408.28;1753631;81;21522;-58
2021/01/17 01:37:54;;;;;;;108.05;34.27;;;;;;;-17.83;61.54;99410.21;1733151;81;21350;-59
2021/01/17 01:40:22;;;;;;;114.05;34.60;;;;;;;-17.97;61.32;99412.05;1749070;81;21137;-57
2021/01/17 01:42:51;;;;;;;102.27;33.98;;;;;;;-18.11;61.32;99409.06;1751684;81;21565;-60
2021/01/17 01:45:19;;;;;;;106.52;32.20;;;;;;;-18.14;61.50;99403.23;1760114;81;21156;-58
2021/01/17 01:47:47;;;;;;;102.87;32.28;;;;;;;-18.14;61.35;99401.94;1731304;81;21134;-58
2021/01/17 01:50:15;;;;;;;80.77;27.37;;;;;;;-18.20;61.28;99404.45;1730060;81;21311;-57
2021/01/17 01:52:43;;;;;;;91.00;30.45;;;;;;;-18.17;61.41;99408.14;1749290;81;21270;-58
2021/01/17 01:55:12;;;;;;;82.40;29.07;;;;;;;-18.12;61.46;99407.86;1744427;81;21300;-58
2021/01/17 01:57:40;;;;;;;78.90;27.55;;;;;;;-18.17;61.22;99414.64;1717557;82;21311;-58
2021/01/17 02:00:11;;;;;;;81.37;28.02;;;;;;;-18.31;61.30;99414.24;1718532;82;21605;-58
2021/01/17 02:02:45;;;;;;;78.45;28.50;;;;;;;-18.33;61.67;99411.38;1735961;82;21552;-58
2021/01/17 02:05:15;;;;;;;80.30;26.33;;;;;;;-18.32;61.55;99403.97;1714780;82;21284;-57
2021/01/17 02:07:51;;;;;;;70.40;24.15;;;;;;;-18.37;61.75;99407.31;1727561;82;21314;-57
2021/01/17 02:10:20;;;;;;;99.60;30.82;;;;;;;-18.49;61.95;99400.33;1745128;82;21331;-58
2021/01/17 02:12:56;;;;;;;91.87;30.02;;;;;;;-18.65;62.11;99403.55;1732679;82;21184;-58
2021/01/17 02:15:27;;;;;;;76.28;25.45;;;;;;;-18.81;62.24;99395.42;1736420;82;21324;-58
2021/01/17 02:17:55;;;;;;;75.52;26.37;;;;;;;-18.93;62.35;99394.91;1728875;82;21125;-57
2021/01/17 02:20:24;;;;;;;76.67;27.40;;;;;;;-19.00;62.50;99394.92;1727801;82;21291;-58
2021/01/17 02:23:06;;;;;;;73.15;27.27;;;;;;;-18.91;62.67;99397.39;1698982;82;21725;-57
2021/01/17 02:25:39;;;;;;;74.72;26.12;;;;;;;-18.75;62.62;99392.09;1710411;82;21162;-57
2021/01/17 02:28:11;;;;;;;73.30;24.20;;;;;;;-18.59;62.49;99396.20;1712167;82;21725;-58
2021/01/17 02:30:47;;;;;;;80.50;25.72;;;;;;;-18.51;62.01;99400.45;1736328;82;21296;-58
2021/01/17 02:33:30;;;;;;;74.85;27.52;;;;;;;-18.46;61.93;99399.67;1740548;82;21845;-58
2021/01/17 02:36:16;;;;;;;74.07;27.93;;;;;;;-18.33;61.90;99399.70;1696181;83;21178;-58
2021/01/17 02:39:17;;;;;;;75.47;25.92;;;;;;;-18.17;61.88;99404.25;1712662;82;21304;-59
2021/01/17 02:41:59;;;;;;;66.75;24.87;;;;;;;-18.11;61.37;99409.06;1685120;82;21174;-58
2021/01/17 02:44:32;;;;;;;67.12;24.20;;;;;;;-18.07;61.23;99412.30;1735939;82;21295;-58
2021/01/17 02:47:00;;;;;;;68.10;26.37;;;;;;;-18.13;61.12;99412.67;1739289;82;21339;-58
2021/01/17 02:49:30;;;;;;;72.08;26.45;;;;;;;-18.35;61.45;99408.06;1740660;82;21594;-58
2021/01/17 02:51:58;;;;;;;77.30;26.15;;;;;;;-18.53;61.69;99401.02;1714592;82;21279;-58
2021/01/17 02:54:34;;;;;;;78.02;27.95;;;;;;;-18.48;62.13;99395.02;1715586;82;21166;-58
2021/01/17 02:57:04;;;;;;;78.55;28.38;;;;;;;-18.30;62.25;99400.80;1710896;82;21347;-58
2021/01/17 02:59:59;;;;;;;75.32;27.25;;;;;;;-18.10;61.91;99399.05;1731123;82;21296;-58
2021/01/17 03:02:31;;;;;;;78.10;26.70;;;;;;;-17.96;61.49;99402.88;1720535;82;21474;-58
2021/01/17 03:05:01;;;;;;;81.45;28.05;;;;;;;-17.93;60.86;99403.96;1708208;82;21330;-58
2021/01/17 03:07:30;;;;;;;74.95;29.40;;;;;;;-17.95;60.71;99400.61;1727179;82;21175;-57
2021/01/17 03:09:58;;;;;;;75.30;28.70;;;;;;;-17.94;60.28;99394.49;1706773;82;21739;-58
2021/01/17 03:12:27;;;;;;;84.05;30.00;;;;;;;-18.14;60.00;99391.08;1719392;82;21203;-58
2021/01/17 03:14:54;;;;;;;78.90;27.22;;;;;;;-18.45;60.23;99390.92;1715534;82;21296;-58
2021/01/17 03:17:22;;;;;;;70.67;27.77;;;;;;;-18.69;60.59;99383.90;1739488;82;21696;-58
2021/01/17 03:19:51;;;;;;;91.53;30.65;;;;;;;-18.93;60.92;99389.72;1726727;82;21291;-58
2021/01/17 03:22:19;;;;;;;93.72;32.93;;;;;;;-19.13;61.28;99390.59;1670003;84;21330;-58
2021/01/17 03:24:48;;;;;;;75.50;28.20;;;;;;;-19.27;61.76;99391.45;1705747;82;21312;-58
2021/01/17 03:27:17;;;;;;;81.32;29.37;;;;;;;-19.38;62.13;99386.92;1717333;82;21327;-57
2021/01/17 03:29:45;;;;;;;84.90;31.25;;;;;;;-19.48;62.22;99392.78;1707213;82;21146;-57
2021/01/17 03:32:13;;;;;;;93.78;34.05;;;;;;;-19.55;62.35;99396.67;1738317;82;21227;-57
2021/01/17 03:35:59;;;;;;;88.40;33.05;;;;;;;-19.52;62.39;99393.44;1778325;79;23423;-57
2021/01/17 03:38:27;;;;;;;91.37;32.70;;;;;;;-19.58;62.48;99400.72;1712936;83;21177;-57
2021/01/17 03:40:55;;;;;;;97.30;33.95;;;;;;;-19.55;62.40;99395.38;1705704;83;21295;-57
2021/01/17 03:43:23;;;;;;;98.03;33.78;;;;;;;-19.69;62.45;99359.09;1718142;83;21129;-58
2021/01/17 03:45:52;;;;;;;80.95;26.15;;;;;;;-19.39;62.55;99377.92;1718750;83;21315;-57
2021/01/17 03:48:20;;;;;;;96.95;32.65;;;;;;;-19.40;62.73;99379.68;1694686;83;21136;-58
2021/01/17 03:50:48;;;;;;;79.58;31.02;;;;;;;-19.49;62.88;99374.27;1694489;83;21137;-57
2021/01/17 03:53:16;;;;;;;103.70;33.28;;;;;;;-19.55;62.99;99376.73;1680375;83;21148;-57
2021/01/17 03:55:44;;;;;;;100.82;36.17;;;;;;;-19.53;63.21;99371.48;1720182;83;21177;-57
2021/01/17 03:58:12;;;;;;;122.45;39.18;;;;;;;-19.53;63.21;99340.37;1718444;82;21198;-57
2021/01/17 04:00:40;;;;;;;123.33;38.65;;;;;;;-19.39;63.36;99364.50;1696375;83;21215;-58
2021/01/17 04:03:09;;;;;;;112.62;36.80;;;;;;;-19.25;63.09;99366.70;1695379;83;21176;-57
2021/01/17 04:05:37;;;;;;;135.70;41.02;;;;;;;-19.29;63.01;99363.46;1695404;83;21169;-57
2021/01/17 04:08:05;;;;;;;119.82;39.80;;;;;;;-19.49;63.19;99336.66;1695797;83;21164;-58
2021/01/17 04:10:33;;;;;;;127.30;41.80;;;;;;;-19.37;63.21;99357.91;1696869;83;21181;-58
2021/01/17 04:13:04;;;;;;;158.12;47.08;;;;;;;-19.39;63.01;99372.73;1662940;83;21592;-57
2021/01/17 04:15:32;;;;;;;154.07;49.60;;;;;;;-19.40;62.96;99364.58;1716008;83;21351;-58
2021/01/17 04:18:01;;;;;;;186.80;52.00;;;;;;;-19.41;62.85;99357.78;1717702;83;21141;-58
2021/01/17 04:20:29;;;;;;;182.32;50.38;;;;;;;-19.45;62.84;99367.51;1720230;83;21271;-58
2021/01/17 04:25:33;;;;;;;172.05;66.50;;;;;;;-19.37;63.15;99360.50;1763273;79;28362;-57
2021/01/17 04:28:01;;;;;;;143.80;49.23;;;;;;;-19.07;63.10;99367.70;1731971;82;21149;-57
2021/01/17 04:30:31;;;;;;;151.00;45.40;;;;;;;-18.82;62.51;99376.07;1719947;82;21113;-57
2021/01/17 04:32:59;;;;;;;138.77;44.08;;;;;;;-18.73;62.33;99372.05;1745798;82;21298;-57
2021/01/17 04:35:28;;;;;;;146.22;44.35;;;;;;;-18.70;61.75;99374.47;1743658;82;21164;-57
2021/01/17 04:37:58;;;;;;;143.43;45.00;;;;;;;-18.65;61.61;99378.88;1745850;82;21310;-57
2021/01/17 04:40:29;;;;;;;143.60;45.33;;;;;;;-18.60;61.40;99378.14;1738642;82;21267;-57
2021/01/17 04:43:19;;;;;;;145.50;46.37;;;;;;;-18.60;61.21;99386.77;1738582;82;21186;-57
2021/01/17 04:45:47;;;;;;;148.05;46.55;;;;;;;-18.55;61.50;99381.25;1752142;82;21279;-57
2021/01/17 04:48:16;;;;;;;143.50;47.48;;;;;;;-18.46;61.57;99390.58;1750033;82;21316;-57
2021/01/17 04:50:44;;;;;;;138.80;44.35;;;;;;;-18.41;61.37;99385.06;1751998;82;21279;-57
2021/01/17 04:53:12;;;;;;;148.53;46.58;;;;;;;-18.40;60.98;99380.25;1728689;82;21156;-58
2021/01/17 04:55:40;;;;;;;129.35;41.50;;;;;;;-18.42;60.80;99375.14;1722981;82;21145;-57
2021/01/17 04:58:18;;;;;;;124.18;41.92;;;;;;;-18.42;60.49;99376.44;1724209;82;21441;-58
2021/01/17 05:00:57;;;;;;;127.82;40.23;;;;;;;-18.53;60.44;99384.61;1739616;82;21616;-58
2021/01/17 05:04:06;;;;;;;170.95;47.05;;;;;;;-18.58;60.63;99377.56;1750010;82;21193;-57
2021/01/17 05:06:35;;;;;;;210.13;51.40;;;;;;;-18.75;60.12;99377.34;1717121;82;21342;-58
2021/01/17 05:09:05;;;;;;;237.38;59.25;;;;;;;-18.97;60.19;99381.76;1719342;82;21187;-58
2021/01/17 05:11:40;;;;;;;206.95;52.45;;;;;;;-19.02;60.35;99373.41;1739426;81;21291;-58
2021/01/17 05:14:35;;;;;;;133.87;39.98;;;;;;;-18.99;60.52;99370.66;1720331;82;21133;-58
2021/01/17 05:17:04;;;;;;;94.72;31.60;;;;;;;-18.99;60.63;99364.62;1714780;82;21746;-58
2021/01/17 05:19:35;;;;;;;96.95;30.97;;;;;;;-18.90;60.87;99377.02;1697020;83;21720;-58
2021/01/17 05:22:04;;;;;;;85.95;28.62;;;;;;;-18.87;60.60;99376.35;1693660;83;21921;-58
2021/01/17 05:24:32;;;;;;;85.05;27.90;;;;;;;-18.85;60.49;99376.27;1717444;82;22028;-58
2021/01/17 05:27:01;;;;;;;93.80;30.82;;;;;;;-18.88;60.21;99370.78;1695740;82;21284;-58
2021/01/17 05:29:29;;;;;;;101.50;33.33;;;;;;;-18.86;60.28;99378.03;1738897;82;21310;-58
2021/01/17 05:32:00;;;;;;;98.75;31.60;;;;;;;-18.77;60.35;99374.00;1729682;82;21187;-59
2021/01/17 05:34:29;;;;;;;76.82;29.12;;;;;;;-18.73;60.24;99367.69;1723559;82;21331;-58
2021/01/17 05:37:11;;;;;;;61.88;22.20;;;;;;;-18.73;59.92;99365.09;1719339;82;21172;-58
2021/01/17 05:40:00;;;;;;;155.60;43.45;;;;;;;-18.77;59.68;99365.75;1734543;82;21149;-58
2021/01/17 05:42:30;;;;;;;171.62;47.00;;;;;;;-18.96;59.93;99364.43;1727131;82;21280;-58
2021/01/17 05:45:22;;;;;;;142.32;42.05;;;;;;;-19.14;60.29;99372.90;1730169;82;21152;-58
2021/01/17 05:47:58;;;;;;;91.85;30.65;;;;;;;-19.05;60.57;99376.20;1731427;82;21158;-58
2021/01/17 05:50:31;;;;;;;96.65;31.23;;;;;;;-18.97;60.48;99375.27;1735996;82;21170;-58
2021/01/17 05:53:02;;;;;;;83.85;29.80;;;;;;;-18.95;60.40;99375.99;1734185;82;21558;-58
2021/01/17 05:55:57;;;;;;;82.30;30.00;;;;;;;-18.98;60.18;99379.24;1724107;82;21287;-58
2021/01/17 05:58:30;;;;;;;65.45;25.20;;;;;;;-19.01;60.14;99384.63;1728014;83;21328;-58
2021/01/17 06:01:08;;;;;;;75.72;26.62;;;;;;;-19.08;59.85;99390.67;1724378;83;21344;-58
2021/01/17 06:03:53;;;;;;;66.27;27.40;;;;;;;-19.03;59.83;99391.23;1762051;79;22816;-60
2021/01/17 06:06:30;;;;;;;82.57;29.85;;;;;;;-19.17;59.56;99399.48;1735402;82;21298;-57
2021/01/17 06:08:59;;;;;;;82.67;29.52;;;;;;;-19.29;59.58;99398.47;1716697;83;21192;-58
2021/01/17 06:11:28;;;;;;;94.00;32.13;;;;;;;-19.30;59.86;99411.06;1714069;83;21172;-58
2021/01/17 06:14:01;;;;;;;122.40;38.53;;;;;;;-19.36;60.04;99410.98;1712475;83;21153;-58
2021/01/17 06:16:39;;;;;;;118.47;41.53;;;;;;;-19.24;60.50;99413.30;1722511;83;21192;-58
2021/01/17 06:19:12;;;;;;;119.35;39.65;;;;;;;-19.24;60.50;99413.30;1719022;83;21307;-59
2021/01/17 06:21:48;;;;;;;93.47;33.50;;;;;;;-19.12;60.26;99412.99;1709993;83;21326;-59
2021/01/17 06:24:15;;;;;;;75.47;31.20;;;;;;;-19.18;60.06;99410.78;1715345;83;21149;-58
2021/01/17 06:26:43;;;;;;;101.58;34.10;;;;;;;-19.29;60.42;99416.63;1712491;83;21322;-59
2021/01/17 06:29:12;;;;;;;111.47;38.60;;;;;;;-19.37;61.08;99417.55;1706051;83;21275;-58
2021/01/17 06:31:40;;;;;;;106.70;38.28;;;;;;;-19.43;61.25;99418.80;1696969;83;21307;-58
2021/01/17 06:34:12;;;;;;;90.83;33.15;;;;;;;-19.43;61.29;99417.50;1696738;83;21173;-59
2021/01/17 06:36:41;;;;;;;85.80;30.30;;;;;;;-19.30;61.59;99422.73;1696156;83;21707;-58
2021/01/17 06:39:25;;;;;;;85.55;29.82;;;;;;;-19.09;61.91;99416.73;1704638;83;21270;-59
2021/01/17 06:41:57;;;;;;;75.90;28.77;;;;;;;-18.85;61.94;99420.39;1721136;83;21181;-58
2021/01/17 06:44:31;;;;;;;62.53;24.10;;;;;;;-18.56;61.96;99422.45;1706168;83;21287;-58
2021/01/17 06:46:59;;;;;;;75.20;28.05;;;;;;;-18.40;61.80;99427.00;1700312;83;21342;-58
2021/01/17 06:49:33;;;;;;;69.32;27.20;;;;;;;-18.45;61.68;99423.39;1718598;83;21680;-59
2021/01/17 06:52:08;;;;;;;68.57;26.75;;;;;;;-18.52;61.71;99424.73;1718484;82;21331;-59
2021/01/17 06:54:39;;;;;;;64.97;24.40;;;;;;;-18.43;62.19;99425.90;1708146;83;21294;-59
2021/01/17 06:57:07;;;;;;;55.67;24.45;;;;;;;-18.24;62.59;99434.65;1707407;83;21315;-58
2021/01/17 06:59:39;;;;;;;67.95;26.52;;;;;;;-17.96;62.80;99430.63;1695776;83;21326;-58
2021/01/17 07:02:37;;;;;;;67.82;26.73;;;;;;;-17.67;62.97;99432.11;1697353;83;21797;-57
2021/01/17 07:05:29;;;;;;;60.63;24.95;;;;;;;-17.34;63.17;99435.48;1705925;83;21299;-57
2021/01/17 07:08:09;;;;;;;60.78;23.20;;;;;;;-17.01;63.07;99420.63;1701193;83;21156;-58
2021/01/17 07:10:41;;;;;;;66.07;26.77;;;;;;;-16.77;62.55;99427.55;1672066;83;21129;-58
2021/01/17 07:13:11;;;;;;;69.32;27.13;;;;;;;-16.65;62.08;99418.05;1700533;83;21298;-58
2021/01/17 07:15:42;;;;;;;79.07;30.57;;;;;;;-16.46;62.32;99418.35;1674615;83;21605;-58
2021/01/17 07:18:14;;;;;;;82.17;31.62;;;;;;;-16.14;62.39;99418.62;1710419;83;21553;-57
2021/01/17 07:20:43;;;;;;;75.15;28.52;;;;;;;-15.83;62.04;99421.11;1722664;83;21656;-58
2021/01/17 07:23:14;;;;;;;76.02;31.57;;;;;;;-15.70;60.51;99411.45;1706045;83;21184;-58
2021/01/17 07:25:45;;;;;;;77.35;34.10;;;;;;;-15.64;60.47;99408.37;1656971;86;21136;-58
2021/01/17 07:28:17;;;;;;;77.53;33.70;;;;;;;-15.54;60.04;99411.94;1705762;83;21153;-57
2021/01/17 07:31:03;;;;;;;89.95;36.50;;;;;;;-15.24;61.02;99413.98;1699833;83;21286;-58
2021/01/17 07:33:32;;;;;;;95.50;39.80;;;;;;;-14.74;60.71;99402.23;1722729;83;21165;-57
2021/01/17 07:36:03;;;;;;;96.32;38.23;;;;;;;-14.22;60.29;99405.39;1714668;83;21291;-58
2021/01/17 07:38:34;;;;;;;98.27;39.05;;;;;;;-13.71;60.29;99402.43;1716661;83;21291;-58
2021/01/17 07:41:08;;;;;;;99.35;41.05;;;;;;;-13.27;58.42;99402.66;1716184;83;21707;-58
2021/01/17 07:43:44;;;;;;;101.22;40.92;;;;;;;-13.11;57.23;99393.02;1694614;83;21319;-58
2021/01/17 07:46:17;;;;;;;85.28;34.90;;;;;;;-12.90;56.81;99399.02;1702917;83;21775;-58
2021/01/17 07:48:48;;;;;;;80.17;31.17;;;;;;;-12.68;56.80;99397.48;1718515;83;21137;-58
2021/01/17 07:51:16;;;;;;;103.72;43.35;;;;;;;-12.62;54.87;99396.14;1722485;83;21266;-58
2021/01/17 07:54:15;;;;;;;95.97;41.73;;;;;;;-12.89;55.12;99404.58;1708113;83;21731;-58
2021/01/17 07:56:43;;;;;;;101.75;45.30;;;;;;;-12.88;56.14;99394.94;1702326;83;21822;-58
2021/01/17 07:59:11;;;;;;;98.85;43.25;;;;;;;-12.40;56.67;99390.68;1698531;83;21196;-59
2021/01/17 08:01:43;;;;;;;88.37;37.78;;;;;;;-11.89;56.28;99392.23;1637202;85;21197;-58
2021/01/17 08:04:18;;;;;;;105.52;44.23;;;;;;;-11.43;55.21;99401.48;1722877;83;21231;-58
2021/01/17 08:06:49;;;;;;;95.60;40.20;;;;;;;-11.49;54.51;99396.80;1720823;83;21173;-58
2021/01/17 08:09:43;;;;;;;88.07;37.08;;;;;;;-11.50;54.98;99397.77;1713659;83;21145;-58
2021/01/17 08:12:31;;;;;;;94.65;41.85;;;;;;;-11.38;54.22;99401.91;1701440;83;21169;-57
2021/01/17 08:15:22;;;;;;;91.75;40.63;;;;;;;-11.42;55.08;99392.65;1704746;83;21165;-58
2021/01/17 08:17:50;;;;;;;93.05;41.28;;;;;;;-10.88;55.22;99402.95;1707636;83;21156;-56
2021/01/17 08:20:25;;;;;;;93.27;43.10;;;;;;;-10.27;54.95;99401.89;1670237;85;21320;-56
2021/01/17 08:23:05;;;;;;;83.45;36.60;;;;;;;-9.96;53.74;99394.44;1709861;83;21168;-56
2021/01/17 08:25:51;;;;;;;85.77;37.08;;;;;;;-9.71;53.20;99400.27;1720324;83;21145;-57
2021/01/17 08:28:36;;;;;;;70.15;32.60;;;;;;;-9.32;52.72;99396.80;1698241;83;21725;-57
2021/01/17 08:31:35;;;;;;;77.27;36.70;;;;;;;-9.32;51.64;99400.27;1720065;83;21299;-56
2021/01/17 08:34:08;;;;;;;74.85;33.02;;;;;;;-9.17;51.92;99394.74;1703086;83;21314;-56
2021/01/17 08:36:37;;;;;;;77.90;35.13;;;;;;;-8.85;51.17;99397.23;1670215;85;21757;-56
2021/01/17 08:39:05;;;;;;;70.08;31.77;;;;;;;-8.89;50.71;99392.77;1712320;83;21164;-57
2021/01/17 08:41:33;;;;;;;64.50;32.20;;;;;;;-8.84;50.32;99390.50;1704549;83;21584;-57
2021/01/17 08:44:01;;;;;;;63.92;31.93;;;;;;;-8.67;49.87;99390.91;1706893;83;21720;-56
2021/01/17 08:46:35;;;;;;;65.90;31.00;;;;;;;-8.51;50.31;99391.48;1700663;83;21634;-57
2021/01/17 08:49:04;;;;;;;67.37;32.38;;;;;;;-8.32;49.91;99392.52;1696874;83;21303;-57
2021/01/17 08:51:33;;;;;;;74.05;35.05;;;;;;;-8.20;49.63;99393.03;1702785;83;21176;-57
2021/01/17 08:54:22;;;;;;;64.62;33.60;;;;;;;-8.25;48.67;99386.08;1706037;83;21137;-56
2021/01/17 08:56:50;;;;;;;65.52;30.30;;;;;;;-8.35;49.23;99385.41;1682835;83;21517;-57
2021/01/17 08:59:34;;;;;;;55.33;25.85;;;;;;;-8.27;48.85;99380.97;1720472;83;21238;-57
2021/01/17 09:02:02;;;;;;;56.77;28.85;;;;;;;-8.30;49.58;99387.09;1704454;83;21643;-57
2021/01/17 09:04:32;;;;;;;59.13;27.58;;;;;;;-8.46;49.15;99387.02;1709665;83;21165;-57
2021/01/17 09:06:59;;;;;;;48.28;23.27;;;;;;;-8.82;49.43;99385.88;1700042;83;21730;-58
2021/01/17 09:09:28;;;;;;;40.50;19.32;;;;;;;-9.00;50.75;99384.31;1710496;83;21291;-58
2021/01/17 09:11:59;;;;;;;43.70;22.02;;;;;;;-8.78;50.43;99375.84;1719754;83;21181;-58
2021/01/17 09:14:29;;;;;;;45.80;21.27;;;;;;;-8.83;50.17;99378.14;1715907;83;21303;-57
2021/01/17 09:17:03;;;;;;;32.98;15.23;;;;;;;-9.00;50.76;99376.41;1694544;83;21318;-57
2021/01/17 09:19:34;;;;;;;39.20;18.17;;;;;;;-9.24;50.83;99370.47;1692020;83;21330;-58
2021/01/17 09:22:05;;;;;;;40.90;19.35;;;;;;;-9.61;51.39;99386.03;1708335;83;21215;-58
2021/01/17 09:24:36;;;;;;;36.38;16.85;;;;;;;-9.73;52.71;99383.28;1721978;83;21145;-56
2021/01/17 09:27:07;;;;;;;39.23;20.65;;;;;;;-9.84;52.82;99380.88;1717760;83;21137;-58
2021/01/17 09:29:40;;;;;;;41.02;21.50;;;;;;;-9.77;53.44;99378.46;1670433;85;21213;-58
2021/01/17 09:32:14;;;;;;;47.80;22.87;;;;;;;-9.54;53.52;99381.47;1681235;83;22077;-57
2021/01/17 09:34:47;;;;;;;37.45;18.37;;;;;;;-9.27;53.75;99369.46;1722144;83;21565;-59
2021/01/17 09:37:19;;;;;;;30.60;16.62;;;;;;;-9.09;52.82;99362.33;1694448;83;21308;-58
2021/01/17 09:39:51;;;;;;;39.70;20.10;;;;;;;-9.30;52.23;99367.97;1720625;83;21290;-57
2021/01/17 09:42:23;;;;;;;39.18;19.80;;;;;;;-9.71;52.92;99373.44;1704892;83;21318;-57
2021/01/17 09:44:54;;;;;;;44.15;21.23;;;;;;;-9.97;53.59;99362.00;1677659;85;21529;-57
2021/01/17 09:47:23;;;;;;;41.02;21.48;;;;;;;-10.16;53.82;99363.48;1698095;83;21310;-57
2021/01/17 09:49:52;;;;;;;34.78;16.12;;;;;;;-10.22;54.52;99366.23;1720008;83;21288;-57
2021/01/17 09:52:24;;;;;;;41.60;21.77;;;;;;;-10.17;55.24;99365.80;1695419;83;21300;-56
2021/01/17 09:54:53;;;;;;;36.75;18.77;;;;;;;-10.14;55.52;99362.86;1720650;83;21283;-57
2021/01/17 09:57:26;;;;;;;42.13;20.02;;;;;;;-10.19;55.54;99363.78;1722358;83;21160;-58
2021/01/17 09:59:55;;;;;;;38.85;19.60;;;;;;;-10.48;55.53;99361.34;1719756;83;21148;-57
2021/01/17 10:02:24;;;;;;;38.50;18.73;;;;;;;-10.58;56.33;99365.00;1705371;83;21718;-57
2021/01/17 10:04:53;;;;;;;44.75;20.15;;;;;;;-10.71;56.58;99358.30;1692421;83;21185;-57
2021/01/17 10:07:22;;;;;;;33.65;17.55;;;;;;;-10.74;56.98;99355.97;1693657;84;21720;-57
2021/01/17 10:09:52;;;;;;;32.93;15.05;;;;;;;-10.68;57.12;99360.63;1694289;84;21295;-57
2021/01/17 10:12:26;;;;;;;33.75;15.95;;;;;;;-10.63;56.75;99360.20;1684048;84;21712;-57
2021/01/17 10:14:55;;;;;;;30.70;15.58;;;;;;;-10.62;57.18;99354.78;1705099;84;21181;-57
2021/01/17 10:17:25;;;;;;;37.85;17.65;;;;;;;-10.65;57.33;99353.76;1706863;83;21307;-57
2021/01/17 10:19:56;;;;;;;27.35;14.30;;;;;;;-10.72;57.39;99351.38;1693759;83;21299;-57
2021/01/17 10:22:24;;;;;;;31.45;14.05;;;;;;;-10.80;57.78;99351.27;1693103;84;21157;-57
2021/01/17 10:24:51;;;;;;;25.05;11.22;;;;;;;-10.92;57.56;99341.94;1706125;84;21794;-56
2021/01/17 10:27:19;;;;;;;28.45;14.30;;;;;;;-10.99;58.33;99346.12;1704364;84;21177;-57
2021/01/17 10:29:49;;;;;;;28.77;14.00;;;;;;;-11.08;58.41;99343.50;1706693;84;21518;-57
2021/01/17 10:32:17;;;;;;;32.75;15.00;;;;;;;-11.00;57.75;99338.36;1704002;84;21474;-57
2021/01/17 10:34:46;;;;;;;22.77;10.78;;;;;;;-11.05;57.79;99330.09;1682780;85;21185;-57
2021/01/17 10:37:17;;;;;;;19.27;8.80;;;;;;;-11.11;58.24;99334.95;1621678;87;21346;-57
2021/01/17 10:39:46;;;;;;;78.05;40.50;;;;;;;-11.09;57.82;99332.67;1684903;84;21169;-57
2021/01/17 10:42:19;;;;;;;21.02;10.68;;;;;;;-11.18;57.49;99334.35;1681954;84;21209;-57
2021/01/17 10:44:58;;;;;;;24.87;11.40;;;;;;;-11.27;57.11;99330.80;1701713;84;21291;-58
2021/01/17 10:51:02;;;;;;;19.30;8.13;;;;;;;-11.50;57.81;99319.45;1768004;79;23164;-57
2021/01/17 10:53:49;;;;;;;21.55;8.95;;;;;;;-11.59;57.39;99327.71;1753374;82;21231;-56
2021/01/17 10:56:21;;;;;;;22.93;10.35;;;;;;;-11.65;57.48;99325.63;1753929;82;21334;-58
2021/01/17 10:58:49;;;;;;;16.00;7.75;;;;;;;-11.64;57.77;99322.87;1751741;82;21270;-57
2021/01/17 11:01:21;;;;;;;24.07;10.60;;;;;;;-11.46;57.42;99327.39;1727877;82;21214;-58
2021/01/17 11:03:52;;;;;;;22.80;9.80;;;;;;;-11.35;57.04;99332.48;1723429;82;21120;-57
2021/01/17 11:06:22;;;;;;;17.77;7.83;;;;;;;-11.28;56.52;99331.77;1677544;85;21363;-57
2021/01/17 11:08:55;;;;;;;23.73;9.08;;;;;;;-11.26;56.38;99331.61;1643575;86;21201;-58
2021/01/17 11:11:30;;;;;;;27.65;12.03;;;;;;;-11.35;56.18;99335.94;1664096;84;21400;-58
2021/01/17 11:13:59;;;;;;;23.73;11.93;;;;;;;-11.39;56.64;99325.37;1662854;86;21343;-58
2021/01/17 11:16:42;;;;;;;21.62;10.40;;;;;;;-11.30;56.73;99332.38;1674597;84;21608;-58
2021/01/17 11:19:13;;;;;;;24.77;11.57;;;;;;;-11.20;56.64;99324.00;1680517;84;21462;-59
2021/01/17 11:21:42;;;;;;;24.27;9.20;;;;;;;-11.12;56.62;99322.77;1675519;84;21694;-58
2021/01/17 11:24:10;;;;;;;22.00;9.43;;;;;;;-11.12;56.41;99331.97;1700430;84;21682;-59
2021/01/17 11:26:39;;;;;;;18.57;8.83;;;;;;;-11.25;56.06;99325.39;1700905;84;21346;-58
2021/01/17 11:29:17;;;;;;;25.05;11.35;;;;;;;-11.36;56.57;99328.19;1698751;84;21679;-59
2021/01/17 11:31:46;;;;;;;26.15;10.30;;;;;;;-11.44;56.95;99321.53;1667757;84;21319;-58
2021/01/17 11:34:15;;;;;;;27.67;12.33;;;;;;;-11.40;57.11;99325.50;1681725;84;21246;-58
2021/01/17 11:36:43;;;;;;;19.75;7.90;;;;;;;-11.29;57.00;99330.10;1692021;84;21834;-58
2021/01/17 11:39:20;;;;;;;21.23;9.78;;;;;;;-11.22;56.08;99315.90;1693008;84;21326;-58